Time;durP1;ratioP1;P1;durP2;ratioP2;P2;SDS_P1;SDS_P2;PMS_P1;PMS_P2;Temp;Humidity;BMP_temperature;BMP_pressure;BME280_temperature;BME280_humidity;BME280_pressure;Samples;Min_cycle;Max_cycle;Signal;HPM_P1;HPM_P2
2022/05/06 00:01:17;;;;;;;12.18;7.15;;;;;;;10.39;58.78;100643.88;10332938;28;20088;-81
2022/05/06 00:06:20;;;;;;;8.80;6.47;;;;;;;10.37;58.68;100650.94;10332600;28;20054;-81
2022/05/06 00:11:22;;;;;;;11.35;7.20;;;;;;;10.37;58.64;100645.72;10330335;28;20185;-81
2022/05/06 00:16:26;;;;;;;11.43;7.32;;;;;;;10.31;58.75;100659.09;10332567;28;20090;-81
2022/05/06 00:21:27;;;;;;;10.30;6.88;;;;;;;10.26;58.82;100661.06;10337870;28;20209;-81
2022/05/06 00:26:29;;;;;;;11.30;6.82;;;;;;;10.13;59.01;100656.47;10332251;28;20133;-81
2022/05/06 00:31:31;;;;;;;11.20;7.65;;;;;;;9.84;58.85;100651.72;10329157;28;20081;-81
2022/05/06 00:36:33;;;;;;;9.38;6.75;;;;;;;9.72;59.43;100645.31;10328250;28;20085;-81
2022/05/06 00:41:35;;;;;;;10.90;7.15;;;;;;;9.78;59.50;100657.22;10332956;28;20222;-81
2022/05/06 00:46:38;;;;;;;14.35;6.85;;;;;;;9.72;59.56;100660.97;10328030;28;20057;-81
2022/05/06 00:51:40;;;;;;;12.57;7.40;;;;;;;9.68;59.48;100658.56;10343710;28;20046;-81
2022/05/06 00:56:42;;;;;;;10.85;7.32;;;;;;;9.70;59.50;100660.19;10332259;28;20119;-81
2022/05/06 01:01:44;;;;;;;10.52;6.85;;;;;;;9.65;59.58;100667.34;10328157;28;20665;-81
2022/05/06 01:06:46;;;;;;;11.00;7.70;;;;;;;9.58;59.61;100679.00;10331185;28;20089;-81
2022/05/06 01:11:48;;;;;;;11.27;7.35;;;;;;;9.51;59.88;100672.31;10331593;28;20977;-81
2022/05/06 01:16:50;;;;;;;13.93;7.35;;;;;;;9.44;60.05;100673.53;10331379;28;20077;-83
2022/05/06 01:21:56;;;;;;;11.57;6.95;;;;;;;9.39;60.30;100663.28;10331325;28;20085;-80
2022/05/06 01:27:09;;;;;;;10.63;7.50;;;;;;;9.27;60.33;100669.03;10329786;28;20124;-81
2022/05/06 01:32:11;;;;;;;12.73;7.68;;;;;;;9.27;59.89;100671.63;10326456;28;20110;-82
2022/05/06 01:37:17;;;;;;;8.38;6.63;;;;;;;9.17;60.20;100677.28;10325167;28;20063;-81
2022/05/06 01:42:21;;;;;;;11.95;8.63;;;;;;;8.99;60.48;100676.31;10328545;28;21006;-82
2022/05/06 01:47:26;;;;;;;9.57;7.70;;;;;;;8.95;60.52;100677.34;10332935;28;20050;-81
2022/05/06 01:52:30;;;;;;;10.65;7.40;;;;;;;8.91;60.47;100675.78;10327341;28;20057;-81
2022/05/06 01:57:32;;;;;;;13.18;8.48;;;;;;;8.92;60.37;100681.81;10325733;28;20112;-82
2022/05/06 02:02:34;;;;;;;11.35;7.97;;;;;;;8.88;60.41;100675.88;10330802;28;20047;-81
2022/05/06 02:07:36;;;;;;;9.95;7.78;;;;;;;8.81;60.71;100679.69;10342401;28;20172;-81
2022/05/06 02:12:38;;;;;;;11.38;7.38;;;;;;;8.71;60.71;100678.31;10340496;28;20050;-81
2022/05/06 02:17:41;;;;;;;12.30;7.72;;;;;;;8.66;60.79;100682.88;10341089;28;20567;-81
2022/05/06 02:22:43;;;;;;;10.98;7.22;;;;;;;8.60;60.88;100680.53;10360024;28;20133;-81
2022/05/06 02:27:45;;;;;;;11.98;8.07;;;;;;;8.59;60.83;100684.03;10344563;28;20050;-81
2022/05/06 02:38:28;;;;;;;11.48;7.55;;;;;;;8.50;60.69;100689.63;10337767;28;20120;-81
2022/05/06 02:43:29;;;;;;;13.57;6.65;;;;;;;8.45;60.72;100691.53;10341901;28;20073;-81
2022/05/06 02:48:31;;;;;;;10.57;7.63;;;;;;;8.43;60.68;100693.38;10345869;28;20128;-81
2022/05/06 02:53:33;;;;;;;11.90;7.57;;;;;;;8.36;60.70;100691.91;10340916;28;20097;-81
2022/05/06 02:58:35;;;;;;;15.07;7.10;;;;;;;8.21;60.97;100698.56;10343490;28;20228;-81
2022/05/06 03:03:37;;;;;;;8.73;7.10;;;;;;;8.16;60.84;100695.25;10337968;28;20133;-81
2022/05/06 03:08:39;;;;;;;11.73;7.75;;;;;;;8.06;60.88;100688.66;10338720;28;20046;-80
2022/05/06 03:13:41;;;;;;;10.13;7.60;;;;;;;7.98;60.95;100694.19;10331532;28;20555;-81
2022/05/06 03:18:42;;;;;;;10.18;7.55;;;;;;;7.94;60.89;100692.59;10333512;28;20055;-81
2022/05/06 03:29:53;;;;;;;11.88;7.90;;;;;;;7.85;60.89;100687.69;10332476;28;20046;-81
2022/05/06 03:34:55;;;;;;;12.57;7.22;;;;;;;7.83;61.05;100681.69;10330499;28;20112;-81
2022/05/06 03:39:57;;;;;;;10.32;7.38;;;;;;;7.81;61.02;100688.72;10334382;28;20120;-81
2022/05/06 03:45:02;;;;;;;9.18;6.82;;;;;;;7.79;60.80;100690.53;10333819;28;20057;-81
2022/05/06 03:55:25;;;;;;;9.75;7.15;;;;;;;7.69;60.66;100693.56;10331962;28;20085;-81
2022/05/06 04:00:27;;;;;;;14.77;7.32;;;;;;;7.68;60.91;100686.63;10334689;28;20155;-81
2022/05/06 04:05:28;;;;;;;10.57;7.13;;;;;;;7.59;60.99;100687.81;10335135;28;20104;-81
2022/05/06 04:10:30;;;;;;;9.93;6.70;;;;;;;7.67;60.68;100706.59;10331204;28;20050;-81
2022/05/06 04:15:32;;;;;;;10.02;6.82;;;;;;;7.74;60.50;100708.09;10333688;28;20085;-81
2022/05/06 04:25:58;;;;;;;10.15;6.88;;;;;;;7.72;60.26;100715.09;10333098;28;20551;-81
2022/05/06 04:31:01;;;;;;;8.05;6.95;;;;;;;7.80;60.31;100720.88;10331937;28;20050;-81
2022/05/06 04:36:04;;;;;;;12.15;6.40;;;;;;;8.52;59.71;100719.94;10329376;28;20101;-81
2022/05/06 04:41:05;;;;;;;8.05;5.70;;;;;;;10.57;55.68;100732.81;10330833;28;20461;-80
2022/05/06 04:46:07;;;;;;;8.82;5.75;;;;;;;12.30;51.27;100723.13;10330771;28;20078;-81
2022/05/06 04:51:09;;;;;;;7.63;6.07;;;;;;;13.65;48.15;100720.56;10324921;28;20189;-81
2022/05/06 04:56:10;;;;;;;7.63;5.57;;;;;;;15.00;45.35;100714.69;10331675;28;20145;-81
2022/05/06 05:01:13;;;;;;;8.52;5.15;;;;;;;16.10;43.02;100715.84;10326652;28;20054;-81
2022/05/06 05:06:14;;;;;;;9.05;5.00;;;;;;;16.73;41.53;100722.81;10329935;28;20138;-81
2022/05/06 05:11:16;;;;;;;6.85;5.22;;;;;;;16.49;40.66;100724.59;10328751;28;20543;-81
2022/05/06 05:16:18;;;;;;;9.20;5.30;;;;;;;14.29;43.81;100733.22;10324101;28;20519;-81
2022/05/06 05:21:20;;;;;;;8.07;5.57;;;;;;;12.46;47.37;100735.34;10321913;28;20061;-81
2022/05/06 05:26:22;;;;;;;8.43;5.78;;;;;;;11.73;49.19;100751.47;10330383;28;20081;-81
2022/05/06 05:31:23;;;;;;;7.43;5.60;;;;;;;11.09;50.80;100750.41;10324606;28;20472;-81
2022/05/06 05:36:25;;;;;;;9.60;5.80;;;;;;;10.73;52.04;100752.97;10325318;28;20087;-81
2022/05/06 05:41:27;;;;;;;10.25;6.03;;;;;;;10.73;52.27;100752.97;10328763;28;20046;-81
2022/05/06 05:51:50;;;;;;;7.68;6.20;;;;;;;10.45;53.82;100758.66;10323843;28;20145;-81
2022/05/06 05:56:52;;;;;;;7.82;6.40;;;;;;;10.44;54.29;100771.78;10318359;28;20062;-81
2022/05/06 06:01:54;;;;;;;8.00;5.88;;;;;;;10.52;54.31;100770.50;10325336;28;20061;-81
2022/05/06 06:06:57;;;;;;;7.53;6.45;;;;;;;10.61;54.57;100777.09;10319331;28;20046;-81
2022/05/06 06:11:59;;;;;;;8.07;6.20;;;;;;;10.81;54.62;100765.66;10322681;28;20073;-81
2022/05/06 06:17:02;;;;;;;10.73;6.47;;;;;;;10.85;54.77;100765.47;10306284;28;20138;-81
2022/05/06 06:22:08;;;;;;;10.75;7.00;;;;;;;10.87;54.97;100770.63;10323044;28;20404;-81
2022/05/06 06:27:10;;;;;;;9.88;6.85;;;;;;;11.05;55.12;100768.00;10326021;28;20105;-81
2022/05/06 06:32:12;;;;;;;11.60;6.63;;;;;;;11.30;54.78;100768.50;10324829;28;20133;-81
2022/05/06 06:37:15;;;;;;;9.32;5.75;;;;;;;11.50;54.63;100764.88;10320600;28;20062;-81
2022/05/06 06:42:17;;;;;;;13.07;7.18;;;;;;;11.73;54.23;100768.97;10323756;28;20046;-81
2022/05/06 06:47:18;;;;;;;11.20;6.68;;;;;;;11.71;54.34;100768.19;10326321;28;20058;-80
2022/05/06 06:52:20;;;;;;;9.77;5.90;;;;;;;12.00;54.13;100765.78;10334862;28;20543;-81
2022/05/06 06:57:22;;;;;;;11.55;5.90;;;;;;;12.17;53.55;100759.66;10326717;28;20113;-81
2022/05/06 07:02:24;;;;;;;9.25;5.40;;;;;;;12.37;52.58;100759.47;10336091;28;20050;-81
2022/05/06 07:12:46;;;;;;;12.68;5.15;;;;;;;12.65;50.64;100761.41;10331113;28;20089;-81
2022/05/06 07:17:48;;;;;;;8.73;4.80;;;;;;;12.53;51.02;100767.34;10331978;28;20069;-81
2022/05/06 07:22:50;;;;;;;7.72;4.63;;;;;;;12.86;51.40;100762.84;10333164;28;20085;-81
2022/05/06 07:27:52;;;;;;;7.90;4.90;;;;;;;13.10;51.31;100764.09;10333703;28;20050;-81
2022/05/06 07:32:53;;;;;;;7.40;4.97;;;;;;;14.29;48.93;100761.31;10331484;28;21090;-80
2022/05/06 07:37:55;;;;;;;8.93;4.60;;;;;;;15.99;46.49;100750.06;10331208;28;20058;-80
2022/05/06 07:42:57;;;;;;;9.27;4.60;;;;;;;17.22;43.16;100744.66;10324765;28;20076;-80
2022/05/06 07:48:00;;;;;;;7.10;3.95;;;;;;;18.48;40.97;100730.47;10315966;28;20056;-80
2022/05/06 07:53:05;;;;;;;10.18;4.07;;;;;;;19.48;39.04;100734.50;10320637;28;20513;-80
2022/05/06 07:58:07;;;;;;;6.38;3.58;;;;;;;20.07;38.00;100726.75;10319622;28;20607;-80
2022/05/06 08:08:30;;;;;;;4.75;2.53;;;;;;;20.63;33.90;100726.28;10317404;28;20057;-80
2022/05/06 08:13:32;;;;;;;5.38;2.70;;;;;;;21.01;33.03;100721.88;10329606;28;20563;-81
2022/05/06 08:18:34;;;;;;;5.80;2.78;;;;;;;21.33;32.11;100716.31;10319728;28;20630;-81
2022/05/06 08:23:40;;;;;;;7.07;3.20;;;;;;;21.53;30.49;100717.97;10329156;28;20054;-81
2022/05/06 08:28:42;;;;;;;5.75;2.80;;;;;;;21.12;32.36;100717.41;10324456;28;20081;-82
2022/05/06 08:33:44;;;;;;;5.53;2.60;;;;;;;21.16;32.01;100718.78;10329396;28;20058;-81
2022/05/06 08:38:49;;;;;;;7.43;3.25;;;;;;;21.69;31.49;100710.22;10328275;28;20100;-81
2022/05/06 08:43:50;;;;;;;6.45;2.75;;;;;;;21.93;31.12;100701.75;10332386;28;20516;-81
2022/05/06 08:54:12;;;;;;;;;;;;;;;21.91;30.38;100706.38;10335837;28;20077;-81
2022/05/06 08:59:14;;;;;;;4.85;2.58;;;;;;;21.74;30.91;100699.16;10330053;28;19999;-82
2022/05/06 09:04:16;;;;;;;7.70;2.90;;;;;;;21.98;30.33;100707.47;10333445;28;20539;-82
2022/05/06 09:09:18;;;;;;;7.10;2.75;;;;;;;21.61;31.19;100704.78;10327615;28;20050;-81
2022/05/06 09:16:39;;;;;;;7.28;2.70;;;;;;;22.00;29.75;100696.69;10322712;28;20566;-82
2022/05/06 09:19:42;;;;;;;4.80;2.60;;;;;;;22.20;29.94;100698.31;10330380;28;20141;-81
2022/05/06 09:24:47;;;;;;;7.75;2.40;;;;;;;22.35;28.41;100694.97;10328735;28;20057;-81
2022/05/06 09:29:54;;;;;;;4.78;2.20;;;;;;;22.42;28.06;100690.75;10329203;28;20046;-80
2022/05/06 09:35:11;;;;;;;7.35;2.15;;;;;;;22.81;28.17;100679.84;10330342;28;20068;-81
2022/05/06 09:40:21;;;;;;;11.25;2.30;;;;;;;22.79;27.72;100682.69;10329077;28;20455;-80
2022/05/06 09:45:39;;;;;;;7.05;2.20;;;;;;;22.25;26.50;100694.19;10321134;28;20054;-80
2022/05/06 09:50:47;;;;;;;3.22;1.67;;;;;;;22.57;26.24;100681.28;10327537;28;20554;-80
2022/05/06 09:55:55;;;;;;;8.45;2.03;;;;;;;22.86;27.53;100683.72;10329412;28;20124;-80
2022/05/06 10:01:01;;;;;;;3.45;1.65;;;;;;;22.80;27.19;100673.69;10327403;28;20112;-79
2022/05/06 10:06:04;;;;;;;5.60;1.90;;;;;;;23.14;25.90;100682.69;10319104;28;20672;-79
2022/05/06 10:11:31;;;;;;;4.15;1.70;;;;;;;22.73;26.12;100672.63;10326075;28;20463;-79
2022/05/06 10:16:36;;;;;;;4.22;1.50;;;;;;;22.89;26.17;100670.09;10328399;28;20054;-80
2022/05/06 10:21:49;;;;;;;5.68;1.85;;;;;;;22.75;25.77;100667.13;10324714;28;20113;-79
2022/05/06 10:26:52;;;;;;;5.88;1.70;;;;;;;22.26;27.44;100671.06;10323521;28;20060;-80
2022/05/06 10:37:15;;;;;;;6.20;2.00;;;;;;;21.37;28.03;100664.50;10327379;28;20061;-79
2022/05/06 10:42:28;;;;;;;5.32;1.80;;;;;;;20.83;28.18;100659.72;10326528;28;20054;-77
2022/05/06 10:47:43;;;;;;;3.53;1.67;;;;;;;21.33;28.04;100659.59;10318764;28;20724;-79
2022/05/06 10:52:48;;;;;;;7.13;1.92;;;;;;;21.65;27.01;100654.75;10341720;28;20120;-78
2022/05/06 10:57:51;;;;;;;3.30;1.60;;;;;;;21.25;28.22;100651.44;10334986;28;20057;-79
2022/05/06 11:02:54;;;;;;;4.25;2.13;;;;;;;20.63;28.53;100647.41;10330608;28;20050;-79
2022/05/06 11:07:59;;;;;;;3.92;1.70;;;;;;;20.98;28.60;100658.34;10328761;28;20136;-78
2022/05/06 11:13:07;;;;;;;4.10;1.80;;;;;;;21.12;27.98;100664.19;10334613;28;20057;-79
2022/05/06 11:18:09;;;;;;;4.10;1.80;;;;;;;21.24;28.37;100652.41;10334343;28;20057;-79
2022/05/06 11:23:16;;;;;;;5.50;1.90;;;;;;;21.36;26.87;100643.31;10322904;28;20058;-81
2022/05/06 11:28:24;;;;;;;3.20;1.50;;;;;;;21.67;25.88;100632.31;10331820;28;20053;-81
2022/05/06 11:33:29;;;;;;;3.70;1.57;;;;;;;21.60;26.44;100625.03;10334274;28;20064;-82
2022/05/06 11:38:40;;;;;;;2.17;1.40;;;;;;;21.59;27.00;100618.06;10333302;28;20081;-83
2022/05/06 11:43:44;;;;;;;3.67;1.52;;;;;;;21.57;27.67;100617.38;10333942;28;20091;-81
2022/05/06 11:48:47;;;;;;;3.88;1.60;;;;;;;21.56;26.30;100608.53;10331404;28;20058;-81
2022/05/06 11:53:50;;;;;;;4.97;1.60;;;;;;;21.40;26.54;100613.63;10330008;28;20066;-79
2022/05/06 11:58:56;;;;;;;3.80;1.40;;;;;;;21.48;27.33;100607.56;10332409;28;20057;-81
2022/05/06 12:04:07;;;;;;;3.60;1.48;;;;;;;21.47;26.64;100592.59;10330475;28;20050;-79
2022/05/06 12:09:11;;;;;;;2.63;1.40;;;;;;;21.51;28.47;100594.00;10333290;28;20054;-81
2022/05/06 12:14:17;;;;;;;3.85;1.30;;;;;;;21.72;29.94;100591.97;10347209;28;20124;-81
2022/05/06 12:19:32;;;;;;;5.30;1.42;;;;;;;21.72;26.26;100583.97;10326453;28;20137;-80
2022/05/06 12:24:39;;;;;;;3.97;1.40;;;;;;;21.61;26.01;100584.16;10330256;28;20061;-80
2022/05/06 12:29:46;;;;;;;3.47;1.33;;;;;;;21.47;26.16;100580.16;10333388;28;20050;-83
2022/05/06 12:35:20;;;;;;;4.93;1.48;;;;;;;21.50;26.40;100574.50;10332082;28;20058;-80
2022/05/06 12:40:33;;;;;;;4.90;1.75;;;;;;;21.31;26.99;100577.22;10319301;28;20050;-84
2022/05/06 12:45:49;;;;;;;4.32;1.40;;;;;;;21.47;26.78;100581.97;10326029;28;20076;-79
2022/05/06 12:50:52;;;;;;;2.47;1.30;;;;;;;21.63;25.81;100579.50;10329176;28;20050;-81
2022/05/06 12:55:55;;;;;;;2.72;1.40;;;;;;;21.83;25.32;100568.63;10330716;28;20551;-80
2022/05/06 13:01:00;;;;;;;3.15;1.30;;;;;;;22.15;25.67;100575.34;10331683;28;20085;-82
2022/05/06 13:06:02;;;;;;;4.28;1.55;;;;;;;21.86;25.50;100554.19;10331596;28;20050;-80
2022/05/06 13:11:05;;;;;;;2.65;1.30;;;;;;;21.94;26.38;100567.59;10331048;28;20746;-79
2022/05/06 13:16:07;;;;;;;2.60;1.40;;;;;;;21.46;26.53;100558.97;10328958;28;20435;-80
2022/05/06 13:21:10;;;;;;;4.30;1.50;;;;;;;21.68;25.65;100558.63;10330794;28;20711;-80
2022/05/06 13:26:13;;;;;;;2.28;1.30;;;;;;;21.70;26.35;100559.31;10330581;28;20563;-81
2022/05/06 13:31:15;;;;;;;2.78;1.40;;;;;;;21.66;27.39;100540.13;10325090;28;20566;-80
2022/05/06 13:36:19;;;;;;;3.55;1.50;;;;;;;21.60;26.69;100547.84;10328048;28;20659;-80
2022/05/06 13:41:21;;;;;;;4.28;1.40;;;;;;;22.15;26.01;100530.06;10327839;28;20504;-79
2022/05/06 13:46:24;;;;;;;5.70;1.40;;;;;;;22.35;25.80;100531.59;10321594;28;20057;-79
2022/05/06 13:51:26;;;;;;;3.58;1.40;;;;;;;22.50;25.40;100524.72;10324210;28;20050;-79
2022/05/06 14:01:49;;;;;;;3.20;1.30;;;;;;;22.30;25.51;100526.72;10341308;28;20046;-80
2022/05/06 14:06:52;;;;;;;5.03;1.40;;;;;;;22.10;26.77;100514.53;10335082;28;20523;-81
2022/05/06 14:11:54;;;;;;;2.85;1.30;;;;;;;22.17;26.25;100520.09;10337085;28;20042;-81
2022/05/06 14:17:01;;;;;;;3.65;1.25;;;;;;;21.82;27.26;100521.66;10345446;28;20108;-81
2022/05/06 14:22:04;;;;;;;4.43;1.45;;;;;;;21.72;27.09;100512.09;10339485;28;20397;-81
2022/05/06 14:27:07;;;;;;;3.08;1.40;;;;;;;21.76;27.73;100513.47;10338954;28;20135;-81
2022/05/06 14:32:09;;;;;;;6.15;1.45;;;;;;;21.67;25.74;100499.22;10333447;28;20093;-80
2022/05/06 14:37:11;;;;;;;2.65;1.25;;;;;;;21.92;24.89;100503.00;10340597;28;20488;-81
2022/05/06 14:42:13;;;;;;;3.40;1.45;;;;;;;22.17;24.67;100493.47;10338811;28;20081;-81
2022/05/06 14:47:16;;;;;;;3.53;1.52;;;;;;;22.34;24.88;100490.78;10337093;28;20137;-80
2022/05/06 14:52:23;;;;;;;2.90;1.30;;;;;;;22.80;24.63;100496.84;10339897;28;20132;-80
2022/05/06 14:57:26;;;;;;;9.98;1.48;;;;;;;22.94;24.11;100483.78;10341818;28;21127;-81
2022/05/06 15:02:29;;;;;;;5.50;1.38;;;;;;;23.07;24.79;100483.31;10337692;28;20484;-81
2022/05/06 15:07:32;;;;;;;3.85;1.40;;;;;;;22.93;24.31;100467.91;10338991;28;20136;-80
2022/05/06 15:12:34;;;;;;;4.07;1.38;;;;;;;23.11;23.79;100466.84;10329055;28;20141;-80
2022/05/06 15:17:37;;;;;;;2.13;1.27;;;;;;;23.07;23.53;100467.31;10331950;28;20108;-81
2022/05/06 15:22:46;;;;;;;3.25;1.40;;;;;;;22.76;25.06;100469.63;10331067;28;20062;-81
2022/05/06 15:27:48;;;;;;;4.80;1.25;;;;;;;22.55;25.25;100475.31;10333793;28;20173;-80
2022/05/06 15:32:50;;;;;;;6.50;1.50;;;;;;;22.01;24.90;100480.75;10330699;28;20057;-80
2022/05/06 15:37:54;;;;;;;2.55;1.25;;;;;;;21.51;24.94;100463.56;10325360;28;20058;-80
2022/05/06 15:42:56;;;;;;;3.90;1.30;;;;;;;21.62;25.08;100476.69;10325423;28;20459;-79
2022/05/06 15:47:58;;;;;;;4.95;1.30;;;;;;;21.33;25.21;100483.97;10326284;28;20600;-80
2022/05/06 15:53:00;;;;;;;5.20;1.38;;;;;;;21.15;25.92;100483.88;10325758;28;20050;-79
2022/05/06 15:58:02;;;;;;;5.53;2.35;;;;;;;21.08;26.64;100488.09;10324560;28;20704;-81
2022/05/06 16:03:07;;;;;;;6.60;1.92;;;;;;;21.16;27.03;100488.22;10329840;28;20050;-81
2022/05/06 16:08:09;;;;;;;6.47;1.30;;;;;;;21.25;28.09;100479.38;10331067;28;20058;-80
2022/05/06 16:13:11;;;;;;;5.53;1.30;;;;;;;21.26;28.48;100475.72;10331890;28;20058;-80
2022/05/06 16:18:13;;;;;;;4.55;1.35;;;;;;;21.58;29.19;100475.28;10329447;28;20057;-81
2022/05/06 16:23:16;;;;;;;3.70;1.40;;;;;;;21.63;27.99;100476.53;10330334;28;20055;-80
2022/05/06 16:28:19;;;;;;;4.03;1.40;;;;;;;21.66;26.82;100475.41;10329638;28;20058;-81
2022/05/06 16:33:21;;;;;;;3.63;1.30;;;;;;;21.59;26.24;100477.81;10327989;28;20058;-80
2022/05/06 16:38:23;;;;;;;2.33;1.20;;;;;;;21.66;26.38;100467.44;10328950;28;20105;-80
2022/05/06 16:43:25;;;;;;;10.57;1.50;;;;;;;21.44;28.71;100468.66;10327486;28;20169;-81
2022/05/06 16:48:28;;;;;;;3.85;1.40;;;;;;;21.25;30.05;100470.53;10326657;28;20423;-81
2022/05/06 16:53:32;;;;;;;2.67;1.50;;;;;;;21.33;29.27;100463.53;10328175;28;20770;-82
2022/05/06 16:58:34;;;;;;;4.78;1.42;;;;;;;21.56;28.86;100467.47;10325052;28;20575;-82
2022/05/06 17:03:37;;;;;;;5.07;1.40;;;;;;;21.70;29.29;100466.13;10324199;28;20054;-80
2022/05/06 17:08:39;;;;;;;5.63;1.50;;;;;;;21.74;28.50;100460.34;10321270;28;20500;-81
2022/05/06 17:13:43;;;;;;;4.18;1.40;;;;;;;21.76;29.21;100465.53;10321994;28;20058;-80
2022/05/06 17:18:47;;;;;;;4.55;1.25;;;;;;;21.67;29.78;100469.09;10324113;28;20459;-81
2022/05/06 17:23:50;;;;;;;3.45;1.40;;;;;;;21.55;31.14;100471.13;10316723;28;20137;-81
2022/05/06 17:28:52;;;;;;;6.25;1.60;;;;;;;21.46;32.04;100469.34;10319026;28;20420;-80
2022/05/06 17:33:55;;;;;;;3.72;1.70;;;;;;;21.33;32.59;100468.00;10318369;28;20539;-81
2022/05/06 17:39:00;;;;;;;4.65;1.73;;;;;;;21.18;32.66;100467.63;10320152;28;20060;-81
2022/05/06 17:44:04;;;;;;;4.35;1.40;;;;;;;20.99;33.91;100481.81;10326040;28;20069;-80
2022/05/06 17:49:07;;;;;;;2.80;1.50;;;;;;;20.82;33.64;100482.59;10304759;28;20532;-81
2022/05/06 17:54:10;;;;;;;5.93;1.65;;;;;;;20.69;35.29;100481.19;10294945;28;20313;-81
2022/05/06 17:59:13;;;;;;;3.03;1.40;;;;;;;20.54;35.61;100482.59;10327742;28;20133;-81
2022/05/06 18:04:18;;;;;;;3.53;1.40;;;;;;;20.37;35.75;100484.16;10310992;28;20050;-81
2022/05/06 18:09:21;;;;;;;6.47;1.50;;;;;;;20.18;36.16;100482.34;10303972;28;20046;-81
2022/05/06 18:14:23;;;;;;;4.40;1.42;;;;;;;20.09;36.74;100490.31;10315153;28;20058;-80
2022/05/06 18:19:28;;;;;;;3.38;1.42;;;;;;;19.96;37.92;100495.88;10323647;28;20434;-79
2022/05/06 18:24:31;;;;;;;2.38;1.30;;;;;;;19.83;38.46;100502.41;10302447;28;20112;-80
2022/05/06 18:29:36;;;;;;;5.50;1.30;;;;;;;19.67;37.91;100507.38;10316418;28;20057;-79
2022/05/06 18:34:38;;;;;;;3.20;1.60;;;;;;;19.43;38.63;100500.59;10324534;28;20562;-79
2022/05/06 18:39:41;;;;;;;3.70;1.70;;;;;;;19.22;39.29;100498.97;10321724;28;20579;-78
2022/05/06 18:44:44;;;;;;;5.55;1.60;;;;;;;18.79;39.63;100509.72;10318476;28;20053;-80
2022/05/06 18:49:47;;;;;;;2.70;1.40;;;;;;;18.72;40.38;100513.88;10326573;28;20058;-80
2022/05/06 18:54:49;;;;;;;3.42;1.50;;;;;;;18.65;40.38;100523.28;10328331;28;20054;-80
2022/05/06 18:59:53;;;;;;;6.10;1.60;;;;;;;18.49;40.87;100528.19;10332819;28;20089;-80
2022/05/06 19:04:57;;;;;;;4.07;1.88;;;;;;;18.33;41.60;100528.63;10325866;28;20125;-79
2022/05/06 19:09:59;;;;;;;4.28;2.05;;;;;;;18.26;42.28;100531.91;10326450;28;20080;-82
2022/05/06 19:15:03;;;;;;;4.45;1.45;;;;;;;18.10;42.56;100526.97;10321587;28;20061;-81
2022/05/06 19:20:10;;;;;;;3.15;1.48;;;;;;;17.96;42.97;100527.25;10325097;28;20340;-82
2022/05/06 19:25:12;;;;;;;4.45;1.67;;;;;;;17.80;43.30;100532.97;10316048;28;20145;-82
2022/05/06 19:30:15;;;;;;;4.38;1.70;;;;;;;17.65;43.19;100536.81;10321292;28;20050;-82
2022/05/06 19:35:17;;;;;;;3.63;1.50;;;;;;;17.37;44.46;100547.88;10329218;28;20594;-82
2022/05/06 19:40:20;;;;;;;16.92;1.83;;;;;;;17.21;43.94;100550.00;10323014;28;20058;-83
2022/05/06 19:45:22;;;;;;;4.80;1.77;;;;;;;17.14;44.34;100542.69;10309777;28;20053;-82
2022/05/06 19:50:25;;;;;;;6.05;1.73;;;;;;;16.88;44.81;100549.94;10324335;28;20050;-82
2022/05/06 19:55:28;;;;;;;4.25;1.73;;;;;;;16.52;45.47;100547.44;10316651;28;20166;-82
2022/05/06 20:00:31;;;;;;;3.17;2.10;;;;;;;16.12;46.34;100546.88;10332188;28;20500;-82
2022/05/06 20:05:35;;;;;;;5.43;1.70;;;;;;;16.07;46.84;100547.19;10324270;28;20057;-84
2022/05/06 20:10:38;;;;;;;3.15;1.60;;;;;;;16.02;46.79;100553.75;10330674;28;20152;-82
2022/05/06 20:15:39;;;;;;;6.05;2.00;;;;;;;15.88;46.84;100557.38;10322372;28;20470;-82
2022/05/06 20:20:41;;;;;;;5.68;1.75;;;;;;;15.67;47.60;100556.31;10319418;28;20100;-77
2022/05/06 20:25:44;;;;;;;4.78;1.90;;;;;;;15.36;48.05;100560.22;10322326;28;20050;-77
2022/05/06 20:30:47;;;;;;;2.88;1.80;;;;;;;15.23;48.56;100566.41;10320776;28;20062;-77
2022/05/06 20:35:49;;;;;;;4.30;2.10;;;;;;;15.04;48.57;100566.00;10315777;28;20469;-77
2022/05/06 20:40:53;;;;;;;6.78;2.13;;;;;;;14.88;49.49;100571.44;10306487;28;20046;-78
2022/05/06 20:45:55;;;;;;;5.07;2.00;;;;;;;14.74;49.57;100568.91;10335973;28;20097;-77
2022/05/06 20:51:00;;;;;;;3.42;2.00;;;;;;;14.69;50.12;100568.38;10324458;28;20136;-77
2022/05/06 20:56:02;;;;;;;5.47;2.15;;;;;;;14.68;49.83;100571.09;10312108;28;20077;-77
2022/05/06 21:01:04;;;;;;;4.93;2.40;;;;;;;14.47;50.34;100571.53;10306365;28;20133;-78
2022/05/06 21:06:08;;;;;;;4.32;2.38;;;;;;;14.41;50.61;100579.00;10317943;28;20062;-77
2022/05/06 21:16:31;;;;;;;4.32;2.30;;;;;;;14.29;50.75;100579.78;10336250;28;20124;-78
2022/05/06 21:21:35;;;;;;;3.72;2.35;;;;;;;13.98;51.06;100587.97;10318521;28;20097;-78
2022/05/06 21:26:37;;;;;;;6.03;2.80;;;;;;;13.86;51.59;100586.09;10321727;28;20400;-78
2022/05/06 21:31:40;;;;;;;8.20;2.63;;;;;;;13.85;51.91;100590.50;10327133;28;20054;-78
2022/05/06 21:36:42;;;;;;;6.13;2.60;;;;;;;13.64;51.81;100595.31;10329064;28;20065;-78
2022/05/06 21:41:43;;;;;;;7.97;2.90;;;;;;;13.33;52.64;100587.59;10327111;28;20050;-77
2022/05/06 21:46:45;;;;;;;7.47;2.95;;;;;;;13.32;52.36;100590.31;10324590;28;20137;-77
2022/05/06 21:51:47;;;;;;;5.55;3.50;;;;;;;13.18;52.67;100592.94;10334270;28;20061;-77
2022/05/06 21:56:48;;;;;;;6.03;3.45;;;;;;;12.86;53.22;100587.78;10315633;28;20141;-77
2022/05/06 22:01:53;;;;;;;6.32;3.30;;;;;;;12.56;54.15;100588.72;10327870;28;20515;-77
2022/05/06 22:06:55;;;;;;;6.75;3.58;;;;;;;12.36;54.28;100597.75;10324419;28;20050;-77
2022/05/06 22:11:57;;;;;;;4.90;3.50;;;;;;;12.47;54.20;100590.13;10323736;28;20168;-78
2022/05/06 22:16:59;;;;;;;6.03;3.33;;;;;;;12.60;53.94;100588.47;10314312;28;21087;-78
2022/05/06 22:22:01;;;;;;;7.72;3.95;;;;;;;12.48;53.78;100581.31;10337515;28;20058;-77
2022/05/06 22:27:07;;;;;;;6.13;3.90;;;;;;;12.24;54.56;100579.19;10331534;28;20061;-77
2022/05/06 22:32:09;;;;;;;6.68;3.60;;;;;;;12.24;54.93;100598.41;10326037;28;20133;-78
2022/05/06 22:37:10;;;;;;;5.28;3.40;;;;;;;12.35;54.65;100584.72;10328441;28;20074;-78
2022/05/06 22:47:33;;;;;;;6.00;4.40;;;;;;;12.29;54.62;100593.78;10326924;28;20057;-78
2022/05/06 22:52:35;;;;;;;6.78;4.05;;;;;;;12.25;54.98;100587.00;10311389;28;20050;-78
2022/05/06 22:57:36;;;;;;;6.30;3.92;;;;;;;12.21;55.21;100590.72;10328711;28;20294;-78
2022/05/06 23:02:38;;;;;;;7.03;4.45;;;;;;;12.20;55.42;100596.88;10338944;28;20057;-78
2022/05/06 23:07:40;;;;;;;8.27;4.53;;;;;;;12.12;55.73;100593.84;10343819;28;20085;-78
2022/05/06 23:12:42;;;;;;;6.40;4.43;;;;;;;11.72;56.34;100591.72;10322267;28;20050;-78
2022/05/06 23:17:43;;;;;;;7.50;5.28;;;;;;;11.59;56.04;100593.28;10334805;28;20132;-78
2022/05/06 23:22:46;;;;;;;8.00;5.30;;;;;;;11.16;56.90;100589.47;10322908;28;20489;-78
2022/05/06 23:27:48;;;;;;;9.25;5.90;;;;;;;11.04;57.31;100590.09;10328919;28;20089;-78
2022/05/06 23:32:50;;;;;;;7.88;5.25;;;;;;;11.12;57.37;100594.00;10323309;28;20117;-78
2022/05/06 23:37:52;;;;;;;10.05;5.63;;;;;;;11.18;57.22;100598.94;10324278;28;20274;-77
2022/05/06 23:42:55;;;;;;;6.78;5.32;;;;;;;11.16;57.26;100595.56;10316795;28;20051;-78
2022/05/06 23:47:57;;;;;;;8.00;5.55;;;;;;;11.15;57.63;100590.41;10323253;28;20094;-78
2022/05/06 23:52:58;;;;;;;10.80;5.97;;;;;;;11.08;57.48;100591.63;10340160;28;20666;-78
2022/05/06 23:58:00;;;;;;;7.40;6.15;;;;;;;10.83;57.36;100591.13;10321977;28;20132;-78
